Time;durP1;ratioP1;P1;durP2;ratioP2;P2;SDS_P1;SDS_P2;PMS_P1;PMS_P2;Temp;Humidity;BMP_temperature;BMP_pressure;BME280_temperature;BME280_humidity;BME280_pressure;Samples;Min_cycle;Max_cycle;Signal;HPM_P1;HPM_P2
2023/01/09 00:01:41;;;;;;;0.57;0.47;;;;;;;8.05;90.34;99120.34;5033732;28;20041;-64
2023/01/09 00:04:06;;;;;;;0.32;0.25;;;;;;;7.98;90.99;99112.78;5030424;28;20390;-64
2023/01/09 00:06:32;;;;;;;0.55;0.22;;;;;;;7.92;91.16;99110.34;5032508;28;20045;-64
2023/01/09 00:08:58;;;;;;;0.45;0.40;;;;;;;7.88;91.82;99106.19;5037454;28;20148;-64
2023/01/09 00:11:23;;;;;;;0.30;0.30;;;;;;;7.82;91.68;99113.19;5037053;28;20044;-64
2023/01/09 00:13:50;;;;;;;0.52;0.30;;;;;;;7.78;91.68;99112.41;5034001;28;20103;-63
2023/01/09 00:16:15;;;;;;;2.03;0.57;;;;;;;7.75;93.00;99115.06;5039171;28;20108;-63
2023/01/09 00:18:41;;;;;;;0.50;0.43;;;;;;;7.72;92.24;99115.13;5039621;28;20452;-64
2023/01/09 00:21:08;;;;;;;0.30;0.30;;;;;;;7.69;92.28;99107.50;5038050;28;20036;-63
2023/01/09 00:23:34;;;;;;;1.15;0.40;;;;;;;7.65;92.05;99105.88;5030941;28;20704;-64
2023/01/09 00:26:18;;;;;;;1.50;0.30;;;;;;;7.59;91.20;99105.19;5045184;28;20044;-64
2023/01/09 00:28:45;;;;;;;0.87;0.30;;;;;;;7.56;91.58;99112.97;5057247;28;20095;-63
2023/01/09 00:31:11;;;;;;;0.85;0.30;;;;;;;7.54;91.89;99117.28;5055284;28;20028;-64
2023/01/09 00:34:09;;;;;;;0.88;0.50;;;;;;;7.49;91.32;99106.25;5034076;28;20031;-64
2023/01/09 00:36:34;;;;;;;0.30;0.30;;;;;;;7.46;91.49;99127.75;5032419;28;20044;-64
2023/01/09 00:39:00;;;;;;;0.32;0.30;;;;;;;7.43;92.12;99123.50;5031584;28;20130;-64
2023/01/09 00:41:30;;;;;;;0.57;0.30;;;;;;;7.41;91.79;99117.56;5036358;28;20052;-63
2023/01/09 00:44:01;;;;;;;0.32;0.32;;;;;;;7.41;91.40;99121.84;5043358;28;20043;-63
2023/01/09 00:46:33;;;;;;;0.20;0.20;;;;;;;7.39;91.49;99115.88;5058119;28;20032;-63
2023/01/09 00:49:00;;;;;;;0.20;0.20;;;;;;;7.38;91.66;99125.34;5053905;28;20427;-63
2023/01/09 00:51:26;;;;;;;0.25;0.25;;;;;;;7.38;92.04;99130.50;5051774;28;20053;-66
2023/01/09 00:53:52;;;;;;;0.32;0.22;;;;;;;7.37;91.82;99120.22;5035417;28;20048;-66
2023/01/09 00:56:20;;;;;;;0.30;0.30;;;;;;;7.36;92.25;99126.22;5030274;28;20037;-66
2023/01/09 00:58:46;;;;;;;1.25;0.25;;;;;;;7.35;92.38;99132.28;5028213;28;20029;-66
2023/01/09 01:01:11;;;;;;;1.30;0.30;;;;;;;7.34;92.24;99133.13;5033770;28;20020;-66
2023/01/09 01:03:38;;;;;;;0.30;0.30;;;;;;;7.33;91.83;99139.16;5030963;28;20061;-66
2023/01/09 01:08:55;;;;;;;0.90;0.30;;;;;;;7.31;91.31;99144.34;5012476;28;20037;-66
2023/01/09 01:11:20;;;;;;;0.22;0.22;;;;;;;7.32;91.71;99146.03;5029929;28;20100;-66
2023/01/09 01:13:46;;;;;;;0.30;0.30;;;;;;;7.33;91.70;99144.28;5034367;28;20025;-66
2023/01/09 01:16:12;;;;;;;0.20;0.20;;;;;;;7.32;91.27;99148.59;5031024;28;20399;-66
2023/01/09 01:18:38;;;;;;;0.28;0.25;;;;;;;7.33;91.10;99155.41;5039992;28;20134;-66
2023/01/09 01:21:09;;;;;;;1.08;0.30;;;;;;;7.33;90.82;99152.84;5038993;28;20751;-66
2023/01/09 01:23:35;;;;;;;0.22;0.20;;;;;;;7.32;91.20;99164.03;5038529;28;20045;-66
2023/01/09 01:26:12;;;;;;;0.20;0.20;;;;;;;7.30;91.35;99154.63;5037261;28;20047;-68
2023/01/09 01:28:38;;;;;;;0.28;0.20;;;;;;;7.27;91.71;99158.13;5038700;28;20079;-66
2023/01/09 01:31:04;;;;;;;0.75;0.30;;;;;;;7.25;91.53;99159.03;5037144;28;20127;-67
2023/01/09 01:33:30;;;;;;;0.30;0.30;;;;;;;7.23;91.96;99164.22;5034688;28;20398;-67
2023/01/09 01:36:07;;;;;;;0.30;0.30;;;;;;;7.20;92.13;99160.84;5039043;28;20041;-60
2023/01/09 01:38:33;;;;;;;0.45;0.28;;;;;;;7.17;92.89;99164.34;5037988;28;20047;-61
2023/01/09 01:40:59;;;;;;;0.20;0.20;;;;;;;7.14;92.66;99158.38;5034912;28;20086;-60
2023/01/09 01:43:25;;;;;;;0.30;0.30;;;;;;;7.12;92.62;99160.97;5037200;28;20029;-60
2023/01/09 01:45:50;;;;;;;0.20;0.20;;;;;;;7.10;91.61;99161.88;5034789;28;20091;-60
2023/01/09 01:48:23;;;;;;;0.30;0.30;;;;;;;7.10;91.89;99159.31;5037755;28;20045;-61
2023/01/09 01:50:54;;;;;;;0.70;0.30;;;;;;;7.07;91.40;99151.66;5052752;28;20552;-61
2023/01/09 01:53:31;;;;;;;0.40;0.40;;;;;;;7.03;91.44;99158.56;5057919;28;20040;-61
2023/01/09 01:56:04;;;;;;;0.63;0.20;;;;;;;6.99;92.21;99167.25;5058506;28;20500;-61
2023/01/09 01:58:32;;;;;;;0.45;0.20;;;;;;;6.96;92.47;99169.88;5059347;28;20032;-61
2023/01/09 02:00:58;;;;;;;0.38;0.20;;;;;;;6.94;92.40;99166.50;5060080;28;20032;-61
2023/01/09 02:03:26;;;;;;;0.65;0.30;;;;;;;6.90;92.78;99175.97;5038204;28;20045;-61
2023/01/09 02:05:51;;;;;;;0.47;0.30;;;;;;;6.90;92.72;99177.69;5036190;28;20469;-61
2023/01/09 02:08:18;;;;;;;0.30;0.30;;;;;;;6.85;92.68;99170.06;5027725;28;20049;-61
2023/01/09 02:10:44;;;;;;;0.20;0.20;;;;;;;6.83;92.81;99169.25;5032425;28;20675;-61
2023/01/09 02:13:10;;;;;;;0.30;0.30;;;;;;;6.81;93.31;99167.59;5033093;28;20024;-61
2023/01/09 02:15:46;;;;;;;0.17;0.17;;;;;;;6.77;92.95;99179.63;5036033;28;20056;-61
2023/01/09 02:18:33;;;;;;;0.20;0.20;;;;;;;6.74;93.43;99171.13;5039327;28;20139;-60
2023/01/09 02:21:12;;;;;;;1.00;0.35;;;;;;;6.71;93.46;99177.16;5033602;28;20045;-64
2023/01/09 02:23:52;;;;;;;0.20;0.20;;;;;;;6.66;93.18;99176.41;5036014;28;20102;-64
2023/01/09 02:26:30;;;;;;;0.38;0.20;;;;;;;6.63;93.36;99183.31;5030979;28;20604;-63
2023/01/09 02:29:14;;;;;;;0.30;0.30;;;;;;;6.61;93.22;99182.50;5037345;28;20761;-64
2023/01/09 02:31:53;;;;;;;0.40;0.30;;;;;;;6.55;93.49;99183.47;5037224;28;20040;-60
2023/01/09 02:34:24;;;;;;;0.25;0.25;;;;;;;6.50;93.63;99182.69;5036311;28;20028;-60
2023/01/09 02:36:59;;;;;;;1.02;0.25;;;;;;;6.46;93.46;99185.34;5038878;28;20120;-61
2023/01/09 02:39:32;;;;;;;1.35;0.20;;;;;;;6.41;93.48;99187.16;5036290;28;20045;-61
2023/01/09 02:42:09;;;;;;;0.20;0.20;;;;;;;6.32;94.08;99196.66;5021172;28;20695;-61
2023/01/09 02:44:35;;;;;;;0.40;0.40;;;;;;;6.26;93.74;99190.78;5051167;28;20028;-61
2023/01/09 02:47:28;;;;;;;0.82;0.50;;;;;;;6.18;93.90;99195.22;5058553;28;20044;-61
2023/01/09 02:49:59;;;;;;;0.30;0.30;;;;;;;6.13;94.46;99203.00;5058458;28;20085;-61
2023/01/09 02:53:00;;;;;;;0.52;0.35;;;;;;;6.09;94.36;99198.75;5056338;28;20062;-61
2023/01/09 02:55:31;;;;;;;0.52;0.35;;;;;;;6.07;95.11;99208.22;5042423;28;20083;-61
2023/01/09 02:58:27;;;;;;;0.52;0.40;;;;;;;6.04;95.02;99215.09;5058991;28;20139;-61
2023/01/09 03:01:26;;;;;;;0.22;0.22;;;;;;;6.02;95.20;99224.53;5056831;28;20666;-61
2023/01/09 03:04:13;;;;;;;1.55;0.30;;;;;;;6.04;95.43;99217.66;5060298;28;20048;-61
2023/01/09 03:07:01;;;;;;;0.63;0.25;;;;;;;6.04;95.41;99220.22;5061422;28;20055;-61
2023/01/09 03:09:30;;;;;;;0.30;0.30;;;;;;;6.10;95.69;99228.69;5054732;28;20040;-61
2023/01/09 03:12:13;;;;;;;0.30;0.30;;;;;;;6.14;96.32;99225.19;5060986;28;20040;-61
2023/01/09 03:14:45;;;;;;;1.13;0.30;;;;;;;6.19;96.24;99220.84;5058102;28;20036;-61
2023/01/09 03:17:15;;;;;;;0.38;0.30;;;;;;;6.24;95.82;99229.31;5055601;28;20048;-61
2023/01/09 03:19:44;;;;;;;0.30;0.30;;;;;;;6.28;95.63;99230.97;5057936;28;20504;-61
2023/01/09 03:22:09;;;;;;;0.98;0.30;;;;;;;6.28;94.82;99235.25;5061148;28;20029;-61
2023/01/09 03:24:34;;;;;;;0.85;0.30;;;;;;;6.24;94.48;99233.59;5060090;28;20522;-61
2023/01/09 03:27:00;;;;;;;0.30;0.30;;;;;;;6.21;94.74;99231.94;5060548;28;20036;-61
2023/01/09 03:29:25;;;;;;;0.88;0.40;;;;;;;6.21;94.63;99228.50;5060915;28;20045;-61
2023/01/09 03:31:51;;;;;;;1.02;0.70;;;;;;;6.26;94.61;99242.97;5060922;28;20041;-61
2023/01/09 03:34:16;;;;;;;0.90;0.40;;;;;;;6.31;94.88;99246.31;5041229;28;20040;-61
2023/01/09 03:36:41;;;;;;;0.25;0.25;;;;;;;6.38;94.92;99256.50;5061189;28;20025;-64
2023/01/09 03:39:07;;;;;;;0.30;0.30;;;;;;;6.41;94.54;99262.41;5057741;28;21033;-64
2023/01/09 03:41:32;;;;;;;0.20;0.20;;;;;;;6.39;94.19;99266.72;5060279;28;20048;-64
2023/01/09 03:43:58;;;;;;;0.38;0.38;;;;;;;6.33;93.50;99265.09;5059126;28;20032;-66
2023/01/09 03:46:23;;;;;;;0.50;0.38;;;;;;;6.22;93.66;99266.97;5061681;28;20028;-66
2023/01/09 03:48:48;;;;;;;0.63;0.30;;;;;;;6.13;93.59;99276.53;5060199;28;20040;-65
2023/01/09 03:51:14;;;;;;;0.40;0.40;;;;;;;6.01;93.86;99277.53;5059411;28;20044;-66
2023/01/09 03:53:40;;;;;;;0.60;0.40;;;;;;;5.94;93.99;99273.34;5061029;28;20777;-65
2023/01/09 03:56:06;;;;;;;1.40;0.30;;;;;;;5.88;94.56;99276.00;5059829;28;20068;-65
2023/01/09 03:58:31;;;;;;;0.93;0.85;;;;;;;5.81;94.96;99274.41;5040810;28;20135;-66
2023/01/09 04:00:59;;;;;;;0.45;0.40;;;;;;;5.72;94.89;99265.09;5060407;28;20686;-66
2023/01/09 04:03:24;;;;;;;0.60;0.43;;;;;;;5.66;94.63;99265.22;5059085;28;20037;-66
2023/01/09 04:05:50;;;;;;;0.45;0.30;;;;;;;5.61;95.16;99274.66;5058118;28;20059;-66
2023/01/09 04:08:16;;;;;;;0.40;0.40;;;;;;;5.58;95.35;99284.06;5036390;28;20053;-66
2023/01/09 04:10:47;;;;;;;0.45;0.45;;;;;;;5.52;95.18;99284.16;5050711;28;20041;-66
2023/01/09 04:13:12;;;;;;;0.93;0.50;;;;;;;5.48;95.70;99291.06;5055340;28;20074;-66
2023/01/09 04:15:38;;;;;;;2.28;0.75;;;;;;;5.45;95.87;99290.22;5031584;28;20036;-65
2023/01/09 04:18:03;;;;;;;1.42;0.50;;;;;;;5.40;96.00;99287.72;5056971;28;20849;-66
2023/01/09 04:20:29;;;;;;;1.65;0.50;;;;;;;5.38;95.67;99280.91;5055489;28;20779;-60
2023/01/09 04:22:55;;;;;;;1.08;0.50;;;;;;;5.34;95.45;99281.81;5056404;28;20093;-63
2023/01/09 04:25:21;;;;;;;1.83;0.60;;;;;;;5.33;95.58;99277.56;5055868;28;20037;-64
2023/01/09 04:27:47;;;;;;;0.88;0.60;;;;;;;5.29;95.67;99281.00;5057468;28;20052;-64
2023/01/09 04:30:12;;;;;;;1.05;0.55;;;;;;;5.25;95.55;99289.59;5035939;28;20132;-64
2023/01/09 04:32:38;;;;;;;1.90;0.70;;;;;;;5.19;95.16;99290.50;5037666;28;20055;-64
2023/01/09 04:35:04;;;;;;;2.97;0.90;;;;;;;5.14;94.83;99293.13;5035484;28;20044;-64
2023/01/09 04:37:29;;;;;;;1.45;0.60;;;;;;;5.12;95.08;99302.53;5037881;28;20517;-64
2023/01/09 04:39:54;;;;;;;1.33;0.50;;;;;;;5.11;94.48;99303.41;5035554;28;20473;-64
2023/01/09 04:42:20;;;;;;;2.55;0.75;;;;;;;5.14;94.88;99311.03;5038946;28;20672;-65
2023/01/09 04:44:46;;;;;;;2.75;1.52;;;;;;;5.21;95.58;99311.84;5036772;28;20036;-64
2023/01/09 04:47:12;;;;;;;1.52;0.75;;;;;;;5.31;95.78;99310.84;5046963;28;20152;-64
2023/01/09 04:49:38;;;;;;;2.90;0.68;;;;;;;5.42;95.31;99321.88;5040957;28;20131;-64
2023/01/09 04:52:04;;;;;;;1.58;0.65;;;;;;;5.53;95.10;99321.75;5034591;28;20493;-64
2023/01/09 04:54:29;;;;;;;1.02;0.50;;;;;;;5.61;95.32;99327.63;5037210;28;20048;-65
2023/01/09 04:56:54;;;;;;;0.85;0.60;;;;;;;5.70;95.01;99330.06;5042461;28;20079;-64
2023/01/09 04:59:20;;;;;;;2.15;0.75;;;;;;;5.76;95.45;99330.84;5041246;28;20067;-64
2023/01/09 05:01:45;;;;;;;2.22;1.00;;;;;;;5.83;94.79;99323.94;5040284;28;20033;-64
2023/01/09 05:04:11;;;;;;;1.83;0.68;;;;;;;5.89;94.81;99330.72;5040416;28;20553;-64
2023/01/09 05:06:37;;;;;;;1.83;1.05;;;;;;;5.96;92.94;99334.91;5039020;28;20104;-64
2023/01/09 05:09:02;;;;;;;3.42;0.70;;;;;;;5.99;92.76;99324.59;5039994;28;20033;-63
2023/01/09 05:11:28;;;;;;;2.60;0.82;;;;;;;6.03;92.40;99327.09;5039671;28;20041;-65
2023/01/09 05:13:53;;;;;;;2.55;0.60;;;;;;;6.07;91.88;99317.66;5041198;28;20033;-65
2023/01/09 05:16:20;;;;;;;3.85;0.80;;;;;;;6.10;91.91;99330.44;5035212;28;20049;-62
2023/01/09 05:18:46;;;;;;;1.70;0.80;;;;;;;6.12;91.49;99329.53;5042239;28;20123;-62
2023/01/09 05:21:12;;;;;;;1.92;0.90;;;;;;;6.17;90.72;99325.19;5056465;28;20032;-62
2023/01/09 05:23:37;;;;;;;2.60;0.80;;;;;;;6.21;90.24;99326.84;5058874;28;20040;-62
2023/01/09 05:26:03;;;;;;;1.20;0.57;;;;;;;6.23;90.08;99332.81;5051657;28;20055;-63
2023/01/09 05:28:29;;;;;;;4.15;0.80;;;;;;;6.22;89.51;99331.13;5037425;28;20045;-63
2023/01/09 05:30:55;;;;;;;5.55;1.00;;;;;;;6.21;89.60;99337.13;5038996;28;20181;-63
2023/01/09 05:33:21;;;;;;;3.45;0.80;;;;;;;6.23;89.22;99330.22;5033911;28;20545;-60
2023/01/09 05:35:46;;;;;;;1.95;0.80;;;;;;;6.27;89.58;99334.47;5049591;28;20033;-60
2023/01/09 05:38:12;;;;;;;5.90;0.82;;;;;;;6.31;88.61;99337.84;5054422;28;20514;-65
2023/01/09 05:40:37;;;;;;;2.95;1.00;;;;;;;6.34;88.51;99337.81;5054816;28;20106;-60
2023/01/09 05:43:03;;;;;;;2.33;1.00;;;;;;;6.39;88.70;99351.41;5026029;28;20061;-60
2023/01/09 05:45:28;;;;;;;7.43;1.10;;;;;;;6.42;88.41;99350.50;5038887;28;20410;-60
2023/01/09 05:47:53;;;;;;;4.05;1.00;;;;;;;6.43;87.64;99342.81;5034543;28;20125;-60
2023/01/09 05:50:19;;;;;;;4.07;0.90;;;;;;;6.47;86.89;99343.63;5038049;28;20677;-60
2023/01/09 05:52:44;;;;;;;4.78;1.17;;;;;;;6.50;87.70;99348.66;5039055;28;20703;-60
2023/01/09 05:55:11;;;;;;;3.67;1.30;;;;;;;6.52;86.67;99346.94;5034217;28;20886;-61
2023/01/09 05:57:36;;;;;;;4.28;1.42;;;;;;;6.56;87.05;99344.28;5037327;28;20021;-60
2023/01/09 06:00:03;;;;;;;3.58;1.00;;;;;;;6.60;86.55;99353.66;5035292;28;20048;-60
2023/01/09 06:02:28;;;;;;;2.45;1.08;;;;;;;6.65;85.80;99346.72;5046264;28;20584;-60
2023/01/09 06:04:54;;;;;;;3.47;1.02;;;;;;;6.70;85.39;99339.81;5051521;28;20032;-60
2023/01/09 06:07:19;;;;;;;3.35;0.95;;;;;;;6.69;85.82;99350.97;5034852;28;20044;-60
2023/01/09 06:09:44;;;;;;;4.10;1.17;;;;;;;6.68;85.87;99346.69;5036663;28;20032;-60
2023/01/09 06:12:10;;;;;;;6.55;0.95;;;;;;;6.69;85.74;99350.09;5031203;28;20040;-60
2023/01/09 06:14:35;;;;;;;11.50;1.50;;;;;;;6.68;85.42;99354.38;5038284;28;20032;-60
2023/01/09 06:17:01;;;;;;;2.50;0.75;;;;;;;6.70;85.19;99356.94;5036218;28;20032;-60
2023/01/09 06:19:26;;;;;;;4.63;0.93;;;;;;;6.71;85.14;99362.03;5038610;28;20036;-60
2023/01/09 06:21:52;;;;;;;3.10;0.85;;;;;;;6.71;85.76;99367.19;5037029;28;20026;-60
2023/01/09 06:24:18;;;;;;;3.13;0.98;;;;;;;6.71;85.72;99371.47;5037457;28;21643;-60
2023/01/09 06:26:43;;;;;;;2.42;0.85;;;;;;;6.73;85.38;99377.44;5036753;28;20033;-60
2023/01/09 06:29:08;;;;;;;1.67;0.70;;;;;;;6.73;85.76;99378.25;5036537;28;20379;-60
2023/01/09 06:31:34;;;;;;;2.25;0.82;;;;;;;6.78;85.53;99380.78;5038089;28;20044;-60
2023/01/09 06:33:59;;;;;;;2.83;0.98;;;;;;;6.81;84.95;99384.16;5041283;28;20044;-61
2023/01/09 06:36:24;;;;;;;2.97;1.13;;;;;;;6.82;85.50;99377.31;5033212;28;20052;-60
2023/01/09 06:38:50;;;;;;;3.92;1.08;;;;;;;6.86;85.02;99378.94;5032127;28;20061;-61
2023/01/09 06:41:16;;;;;;;2.47;0.70;;;;;;;6.90;85.29;99381.44;5034068;28;20045;-63
2023/01/09 06:43:41;;;;;;;2.20;1.20;;;;;;;6.94;85.09;99386.53;5031599;28;20079;-60
2023/01/09 06:46:06;;;;;;;6.57;1.60;;;;;;;6.95;85.11;99380.50;5038627;28;20469;-60
2023/01/09 06:48:33;;;;;;;3.97;1.00;;;;;;;6.96;85.21;99380.50;5038068;28;20083;-60
2023/01/09 06:50:58;;;;;;;1.98;0.90;;;;;;;6.98;85.42;99390.72;5031869;28;20037;-60
2023/01/09 06:53:24;;;;;;;5.00;1.17;;;;;;;6.98;86.12;99386.44;5038053;28;20130;-60
2023/01/09 06:55:50;;;;;;;4.43;0.95;;;;;;;6.99;86.60;99392.44;5034175;28;20409;-60
2023/01/09 06:58:15;;;;;;;1.35;0.80;;;;;;;6.99;86.45;99380.44;5032255;28;20028;-60
2023/01/09 07:00:41;;;;;;;4.38;1.05;;;;;;;7.01;86.75;99388.97;5027751;28;20090;-60
2023/01/09 07:03:06;;;;;;;3.67;0.98;;;;;;;7.04;86.36;99383.78;5035410;28;20037;-59
2023/01/09 07:05:38;;;;;;;3.90;0.80;;;;;;;7.09;85.68;99391.44;5037488;28;20036;-60
2023/01/09 07:08:04;;;;;;;2.40;0.60;;;;;;;7.14;85.76;99387.06;5035289;28;20514;-60
2023/01/09 07:10:29;;;;;;;2.50;0.68;;;;;;;7.18;85.31;99389.56;5039295;28;20087;-60
2023/01/09 07:12:54;;;;;;;4.45;0.50;;;;;;;7.20;85.53;99389.56;5035119;28;20044;-60
2023/01/09 07:15:21;;;;;;;2.92;0.60;;;;;;;7.23;85.18;99385.22;5033989;28;20052;-60
2023/01/09 07:17:48;;;;;;;2.85;0.75;;;;;;;7.24;85.57;99391.22;5036599;28;20075;-61
2023/01/09 07:20:13;;;;;;;2.28;0.68;;;;;;;7.28;84.75;99382.56;5038709;28;20038;-60
2023/01/09 07:22:38;;;;;;;3.75;0.93;;;;;;;7.27;85.39;99385.97;5037573;28;20037;-60
2023/01/09 07:25:04;;;;;;;2.35;1.10;;;;;;;7.26;85.04;99386.88;5037088;28;20032;-60
2023/01/09 07:27:30;;;;;;;2.00;1.00;;;;;;;7.26;85.29;99387.72;5038443;28;20115;-61
2023/01/09 07:29:55;;;;;;;6.18;1.70;;;;;;;7.28;85.43;99385.13;5037938;28;20056;-61
2023/01/09 07:32:21;;;;;;;2.45;0.80;;;;;;;7.29;85.40;99391.97;5037555;28;20638;-60
2023/01/09 07:34:47;;;;;;;1.83;0.70;;;;;;;7.33;85.17;99388.44;5036796;28;20037;-63
2023/01/09 07:37:13;;;;;;;0.95;0.70;;;;;;;7.35;84.97;99389.28;5037773;28;20028;-63
2023/01/09 07:39:38;;;;;;;2.58;1.05;;;;;;;7.37;85.61;99388.38;5036951;28;20086;-64
2023/01/09 07:42:04;;;;;;;4.90;0.88;;;;;;;7.38;85.61;99394.38;5037289;28;20051;-63
2023/01/09 07:44:29;;;;;;;1.52;0.88;;;;;;;7.39;85.52;99396.91;5033273;28;20052;-63
2023/01/09 07:46:54;;;;;;;5.70;0.90;;;;;;;7.41;85.10;99392.63;5035404;28;20102;-63
2023/01/09 07:49:20;;;;;;;2.13;0.75;;;;;;;7.43;85.46;99397.72;5030459;28;20410;-63
2023/01/09 07:51:47;;;;;;;1.52;0.77;;;;;;;7.44;85.18;99399.41;5036953;28;20033;-64
2023/01/09 07:54:12;;;;;;;2.67;0.80;;;;;;;7.47;85.24;99401.94;5029682;28;20033;-64
2023/01/09 07:56:39;;;;;;;3.47;0.70;;;;;;;7.49;85.46;99405.31;5033531;28;20036;-64
2023/01/09 07:59:05;;;;;;;1.65;0.50;;;;;;;7.52;85.06;99402.69;5033026;28;20029;-64
2023/01/09 08:01:30;;;;;;;1.02;0.50;;;;;;;7.57;84.89;99403.44;5031883;28;21313;-64
2023/01/09 08:03:56;;;;;;;2.40;0.90;;;;;;;7.61;84.41;99399.97;5035080;28;20025;-64
2023/01/09 08:06:21;;;;;;;2.45;0.70;;;;;;;7.65;84.41;99405.91;5037580;28;20044;-66
2023/01/09 08:08:47;;;;;;;1.52;0.60;;;;;;;7.66;84.50;99407.56;5040804;28;20041;-63
2023/01/09 08:11:13;;;;;;;1.10;0.60;;;;;;;7.69;84.69;99426.38;5054744;28;20044;-63
2023/01/09 08:13:38;;;;;;;1.02;0.50;;;;;;;7.71;84.86;99427.22;5050119;28;20124;-63
2023/01/09 08:16:04;;;;;;;4.07;0.82;;;;;;;7.75;84.28;99427.97;5027783;28;20099;-63
2023/01/09 08:18:29;;;;;;;1.85;0.88;;;;;;;7.77;83.89;99423.69;5035341;28;20033;-63
2023/01/09 08:20:55;;;;;;;5.70;0.90;;;;;;;7.78;83.29;99423.63;5037000;28;20470;-62
2023/01/09 08:23:20;;;;;;;1.80;0.80;;;;;;;7.76;83.74;99429.69;5035914;28;20037;-63
2023/01/09 08:25:45;;;;;;;2.55;0.90;;;;;;;7.72;83.82;99433.19;5035214;28;20135;-63
2023/01/09 08:28:11;;;;;;;1.23;0.65;;;;;;;7.69;84.98;99436.66;5032250;28;20616;-64
2023/01/09 08:30:37;;;;;;;3.70;1.08;;;;;;;7.63;85.12;99430.78;5038432;28;20028;-64
2023/01/09 08:33:03;;;;;;;1.92;0.95;;;;;;;7.60;85.36;99435.97;5037887;28;20112;-63
2023/01/09 08:35:28;;;;;;;3.95;1.10;;;;;;;7.58;85.83;99437.72;5047408;28;20519;-63
2023/01/09 08:37:53;;;;;;;1.63;0.90;;;;;;;7.58;85.59;99445.44;5049291;28;20408;-63
2023/01/09 08:40:19;;;;;;;2.05;0.98;;;;;;;7.58;85.50;99441.16;5037703;28;20060;-63
2023/01/09 08:48:14;;;;;;;1.70;0.77;;;;;;;7.61;85.72;99445.38;5052388;28;20039;-64
2023/01/09 08:50:39;;;;;;;3.03;0.60;;;;;;;7.64;85.21;99453.91;5046851;28;20037;-63
2023/01/09 08:53:04;;;;;;;4.20;0.88;;;;;;;7.67;84.78;99440.13;5034984;28;20041;-63
2023/01/09 08:55:30;;;;;;;4.28;0.70;;;;;;;7.73;84.47;99443.44;5036111;28;20045;-63
2023/01/09 08:57:55;;;;;;;1.65;0.65;;;;;;;7.79;84.40;99448.50;5038254;28;20090;-63
2023/01/09 09:00:23;;;;;;;4.93;0.80;;;;;;;7.86;83.68;99437.19;5039275;28;20049;-64
2023/01/09 09:02:53;;;;;;;2.78;0.70;;;;;;;7.96;82.67;99437.88;5037124;28;20040;-63
2023/01/09 09:05:19;;;;;;;2.83;1.23;;;;;;;8.04;82.45;99437.75;5044489;28;20408;-65
2023/01/09 09:07:47;;;;;;;1.98;0.93;;;;;;;8.14;81.80;99445.25;5045954;28;20048;-65
2023/01/09 09:10:13;;;;;;;3.00;0.70;;;;;;;8.22;81.88;99440.78;5029920;28;20025;-65
2023/01/09 09:12:39;;;;;;;1.55;0.70;;;;;;;8.29;82.36;99442.38;5028405;28;20033;-65
2023/01/09 09:15:23;;;;;;;3.30;0.73;;;;;;;8.37;82.33;99449.91;5036309;28;20044;-66
2023/01/09 09:17:54;;;;;;;3.30;0.80;;;;;;;8.44;80.93;99441.19;5021647;28;20060;-65
2023/01/09 09:20:21;;;;;;;3.22;1.48;;;;;;;8.60;81.44;99442.59;5033066;28;20037;-65
2023/01/09 09:22:47;;;;;;;2.65;0.70;;;;;;;8.74;81.25;99435.41;5035085;28;20044;-65
2023/01/09 09:25:13;;;;;;;2.35;0.80;;;;;;;8.87;80.25;99441.94;5030007;28;20024;-65
2023/01/09 09:27:39;;;;;;;2.72;0.52;;;;;;;9.02;79.79;99440.78;5056317;28;20032;-66
2023/01/09 09:30:05;;;;;;;3.78;0.70;;;;;;;9.18;79.40;99444.69;5036866;28;20062;-65
2023/01/09 09:32:31;;;;;;;3.90;0.60;;;;;;;9.29;78.40;99445.25;5046822;28;20128;-67
2023/01/09 09:34:56;;;;;;;1.50;0.68;;;;;;;9.30;77.73;99441.81;5057113;28;20035;-65
2023/01/09 09:37:22;;;;;;;2.72;0.80;;;;;;;9.30;77.79;99448.69;5053778;28;20107;-64
2023/01/09 09:39:47;;;;;;;3.28;0.68;;;;;;;9.28;78.10;99455.63;5038337;28;20029;-64
2023/01/09 09:45:39;;;;;;;5.75;1.55;;;;;;;9.16;77.80;99459.34;5059322;28;20096;-65
2023/01/09 09:48:33;;;;;;;3.28;0.70;;;;;;;9.10;77.98;99467.22;5037746;28;20541;-64
2023/01/09 09:51:24;;;;;;;1.45;0.60;;;;;;;9.10;78.05;99483.53;5049893;28;20040;-67
2023/01/09 09:53:52;;;;;;;2.00;0.43;;;;;;;9.10;79.39;99490.41;5041395;28;20448;-67
2023/01/09 09:56:21;;;;;;;4.25;0.88;;;;;;;9.13;80.11;99491.19;5038549;28;20495;-65
2023/01/09 09:58:50;;;;;;;2.47;0.50;;;;;;;9.19;79.38;99492.78;5038180;28;20037;-64
2023/01/09 10:01:26;;;;;;;2.05;0.55;;;;;;;9.21;78.78;99493.59;5041401;28;20116;-64
2023/01/09 10:03:57;;;;;;;3.63;0.55;;;;;;;9.22;77.75;99492.72;5039217;28;20500;-64
2023/01/09 10:06:29;;;;;;;2.05;0.40;;;;;;;9.25;77.43;99490.06;5033744;28;20041;-65
2023/01/09 10:09:00;;;;;;;1.92;0.60;;;;;;;9.31;77.53;99492.50;5032611;28;20651;-64
2023/01/09 10:11:35;;;;;;;3.03;0.70;;;;;;;9.41;76.98;99493.09;5036498;28;20045;-64
2023/01/09 10:14:03;;;;;;;1.90;0.50;;;;;;;9.52;76.52;99491.13;5033250;28;20083;-64
2023/01/09 10:17:02;;;;;;;3.83;0.80;;;;;;;9.58;74.46;99478.13;5036290;28;20041;-64
2023/01/09 10:19:44;;;;;;;1.17;0.40;;;;;;;9.68;74.88;99482.16;4986360;28;20106;-64
2023/01/09 10:22:27;;;;;;;3.60;0.40;;;;;;;9.77;74.49;99471.59;5039012;28;20052;-63
2023/01/09 10:25:05;;;;;;;1.35;0.70;;;;;;;9.78;74.52;99477.59;5039662;28;20077;-64
2023/01/09 10:27:57;;;;;;;1.40;0.50;;;;;;;9.71;74.07;99478.63;5059402;28;20040;-64
2023/01/09 10:30:52;;;;;;;0.80;0.47;;;;;;;9.67;72.60;99473.56;5006629;28;20065;-64
2023/01/09 10:33:36;;;;;;;0.93;0.40;;;;;;;9.62;72.83;99479.72;5053296;28;20067;-64
2023/01/09 10:36:36;;;;;;;0.80;0.50;;;;;;;9.58;73.42;99476.38;5058639;28;20036;-64
2023/01/09 10:39:07;;;;;;;0.35;0.30;;;;;;;9.54;73.00;99485.06;5056550;28;20041;-64
2023/01/09 10:42:02;;;;;;;0.57;0.30;;;;;;;9.51;73.34;99486.84;5041546;28;20412;-63
2023/01/09 10:44:38;;;;;;;0.70;0.40;;;;;;;9.49;72.08;99486.06;5060240;28;20802;-63
2023/01/09 10:47:16;;;;;;;0.30;0.30;;;;;;;9.45;73.11;99499.91;5055626;28;20509;-62
2023/01/09 10:49:44;;;;;;;0.95;0.40;;;;;;;9.45;73.30;99492.16;5053862;28;20044;-63
2023/01/09 10:52:19;;;;;;;2.63;0.80;;;;;;;9.48;72.43;99484.34;5059239;28;20021;-63
2023/01/09 10:54:54;;;;;;;0.45;0.30;;;;;;;9.51;73.03;99492.88;5054967;28;20028;-63
2023/01/09 10:57:31;;;;;;;;;;;;;;;9.57;72.21;99486.72;5056317;28;20729;-63
2023/01/09 10:59:57;;;;;;;0.57;0.40;;;;;;;9.66;73.21;99491.66;5058730;28;20007;-63
2023/01/09 11:02:27;;;;;;;2.05;0.70;;;;;;;9.73;71.79;99475.16;5048493;28;20045;-63
2023/01/09 11:04:53;;;;;;;1.02;0.50;;;;;;;9.79;72.93;99498.22;5040077;28;20041;-63
2023/01/09 11:07:22;;;;;;;4.75;1.15;;;;;;;9.81;72.26;99485.28;5037250;28;20533;-63
2023/01/09 11:10:06;;;;;;;1.08;0.55;;;;;;;9.78;72.12;99487.94;5036561;28;20036;-63
2023/01/09 11:12:33;;;;;;;1.17;0.50;;;;;;;9.81;72.40;99485.28;5039366;28;20044;-63
2023/01/09 11:15:27;;;;;;;0.40;0.40;;;;;;;9.86;71.43;99480.84;5033599;28;20518;-63
2023/01/09 11:17:56;;;;;;;0.82;0.40;;;;;;;9.87;71.51;99480.81;5028390;28;20052;-63
2023/01/09 11:20:21;;;;;;;0.68;0.40;;;;;;;9.82;71.47;99489.56;5035220;28;20568;-62
2023/01/09 11:22:49;;;;;;;1.27;0.52;;;;;;;9.77;71.61;99487.06;5038112;28;20037;-63
2023/01/09 11:25:20;;;;;;;1.75;0.43;;;;;;;9.72;72.04;99506.16;5035761;28;20037;-63
2023/01/09 11:28:01;;;;;;;0.68;0.40;;;;;;;9.73;71.45;99494.94;5036925;28;20048;-63
2023/01/09 11:30:27;;;;;;;0.40;0.40;;;;;;;9.75;71.42;99495.75;5037442;28;20040;-63
2023/01/09 11:32:56;;;;;;;1.00;0.40;;;;;;;9.85;72.59;99510.13;5034058;28;20037;-63
2023/01/09 11:35:30;;;;;;;0.80;0.40;;;;;;;9.94;71.80;99507.31;5036523;28;20037;-60
2023/01/09 11:38:11;;;;;;;1.00;0.68;;;;;;;9.96;71.32;99500.38;5044461;28;20036;-61
2023/01/09 11:40:51;;;;;;;1.65;0.63;;;;;;;9.97;71.33;99510.63;5057188;28;20303;-60
2023/01/09 11:43:29;;;;;;;0.40;0.40;;;;;;;9.92;69.91;99485.84;5053253;28;20039;-60
2023/01/09 11:45:56;;;;;;;0.70;0.43;;;;;;;9.92;71.05;99503.91;5037159;28;20070;-61
2023/01/09 11:48:37;;;;;;;0.55;0.40;;;;;;;9.96;70.55;99498.63;5054694;28;20045;-61
2023/01/09 11:51:17;;;;;;;0.28;0.28;;;;;;;9.99;69.67;99495.97;5037786;28;20128;-61
2023/01/09 11:53:52;;;;;;;0.45;0.30;;;;;;;10.05;69.98;99485.50;5038935;28;20037;-60
2023/01/09 11:56:18;;;;;;;0.35;0.28;;;;;;;10.06;70.03;99494.09;5039740;28;20041;-60
2023/01/09 11:58:43;;;;;;;0.93;0.40;;;;;;;10.06;71.27;99518.13;5037344;28;20037;-60
2023/01/09 12:01:16;;;;;;;0.98;0.30;;;;;;;9.87;73.79;99539.31;5021425;28;20033;-63
2023/01/09 12:04:08;;;;;;;0.82;0.30;;;;;;;9.68;75.34;99552.66;5039613;28;20075;-64